sensor_id;sensor_type;location;lat;lon;timestamp;P1;durP1;ratioP1;P2;durP2;ratioP2
462;SDS011;218;51.902;9.542;2022-12-10T00:02:14;27.17;;;22.15;;
462;SDS011;218;51.902;9.542;2022-12-10T00:04:41;30.60;;;22.83;;
462;SDS011;218;51.902;9.542;2022-12-10T00:07:08;24.35;;;21.10;;
462;SDS011;218;51.902;9.542;2022-12-10T00:09:36;28.20;;;21.48;;
462;SDS011;218;51.902;9.542;2022-12-10T00:12:03;28.48;;;22.42;;
462;SDS011;218;51.902;9.542;2022-12-10T00:14:30;30.48;;;22.52;;
462;SDS011;218;51.902;9.542;2022-12-10T00:16:57;33.67;;;22.98;;
462;SDS011;218;51.902;9.542;2022-12-10T00:19:24;27.10;;;20.88;;
462;SDS011;218;51.902;9.542;2022-12-10T00:21:51;28.50;;;22.08;;
462;SDS011;218;51.902;9.542;2022-12-10T00:24:18;27.85;;;20.88;;
462;SDS011;218;51.902;9.542;2022-12-10T00:26:46;27.02;;;21.80;;
462;SDS011;218;51.902;9.542;2022-12-10T00:29:13;27.15;;;21.05;;
462;SDS011;218;51.902;9.542;2022-12-10T00:31:40;27.73;;;21.52;;
462;SDS011;218;51.902;9.542;2022-12-10T00:34:08;27.02;;;21.50;;
462;SDS011;218;51.902;9.542;2022-12-10T00:36:37;27.58;;;21.38;;
462;SDS011;218;51.902;9.542;2022-12-10T00:39:05;31.50;;;23.77;;
462;SDS011;218;51.902;9.542;2022-12-10T00:41:32;25.80;;;20.63;;
462;SDS011;218;51.902;9.542;2022-12-10T00:44:01;27.33;;;20.80;;
462;SDS011;218;51.902;9.542;2022-12-10T00:46:28;24.85;;;20.45;;
462;SDS011;218;51.902;9.542;2022-12-10T00:48:55;28.27;;;20.42;;
462;SDS011;218;51.902;9.542;2022-12-10T00:51:22;26.77;;;19.95;;
462;SDS011;218;51.902;9.542;2022-12-10T00:53:51;28.30;;;21.27;;
462;SDS011;218;51.902;9.542;2022-12-10T00:56:20;24.98;;;18.63;;
462;SDS011;218;51.902;9.542;2022-12-10T00:58:49;25.13;;;20.00;;
462;SDS011;218;51.902;9.542;2022-12-10T01:01:19;24.88;;;18.65;;
462;SDS011;218;51.902;9.542;2022-12-10T01:03:48;28.48;;;22.00;;
462;SDS011;218;51.902;9.542;2022-12-10T01:06:17;28.33;;;21.40;;
462;SDS011;218;51.902;9.542;2022-12-10T01:08:45;27.95;;;22.30;;
462;SDS011;218;51.902;9.542;2022-12-10T01:11:13;30.40;;;21.75;;
462;SDS011;218;51.902;9.542;2022-12-10T01:13:42;28.42;;;20.40;;
462;SDS011;218;51.902;9.542;2022-12-10T01:16:10;30.75;;;22.35;;
462;SDS011;218;51.902;9.542;2022-12-10T01:18:40;29.13;;;23.67;;
462;SDS011;218;51.902;9.542;2022-12-10T01:21:08;26.13;;;20.83;;
462;SDS011;218;51.902;9.542;2022-12-10T01:23:37;29.58;;;22.10;;
462;SDS011;218;51.902;9.542;2022-12-10T01:26:05;32.30;;;22.55;;
462;SDS011;218;51.902;9.542;2022-12-10T01:28:35;28.25;;;20.95;;
462;SDS011;218;51.902;9.542;2022-12-10T01:31:04;28.35;;;21.98;;
462;SDS011;218;51.902;9.542;2022-12-10T01:33:33;33.35;;;23.02;;
462;SDS011;218;51.902;9.542;2022-12-10T01:36:03;29.73;;;21.35;;
462;SDS011;218;51.902;9.542;2022-12-10T01:38:31;27.73;;;19.98;;
462;SDS011;218;51.902;9.542;2022-12-10T01:40:59;27.13;;;21.13;;
462;SDS011;218;51.902;9.542;2022-12-10T01:43:26;24.58;;;20.48;;
462;SDS011;218;51.902;9.542;2022-12-10T01:45:53;29.10;;;21.70;;
462;SDS011;218;51.902;9.542;2022-12-10T01:48:20;25.90;;;20.75;;
462;SDS011;218;51.902;9.542;2022-12-10T01:50:47;29.77;;;20.92;;
462;SDS011;218;51.902;9.542;2022-12-10T01:53:16;30.00;;;21.85;;
462;SDS011;218;51.902;9.542;2022-12-10T01:55:45;28.25;;;20.80;;
462;SDS011;218;51.902;9.542;2022-12-10T01:58:15;24.20;;;20.40;;
462;SDS011;218;51.902;9.542;2022-12-10T02:00:51;29.88;;;22.45;;
462;SDS011;218;51.902;9.542;2022-12-10T02:03:28;28.83;;;21.42;;
462;SDS011;218;51.902;9.542;2022-12-10T02:06:06;23.95;;;19.50;;
462;SDS011;218;51.902;9.542;2022-12-10T02:08:46;27.83;;;20.42;;
462;SDS011;218;51.902;9.542;2022-12-10T02:11:22;30.67;;;22.42;;
462;SDS011;218;51.902;9.542;2022-12-10T02:13:56;27.95;;;19.85;;
462;SDS011;218;51.902;9.542;2022-12-10T02:16:26;28.80;;;19.35;;
462;SDS011;218;51.902;9.542;2022-12-10T02:19:02;28.75;;;19.90;;
462;SDS011;218;51.902;9.542;2022-12-10T02:21:36;28.42;;;20.17;;
462;SDS011;218;51.902;9.542;2022-12-10T02:24:07;29.08;;;19.92;;
462;SDS011;218;51.902;9.542;2022-12-10T02:26:39;24.45;;;19.85;;
462;SDS011;218;51.902;9.542;2022-12-10T02:29:13;26.92;;;20.55;;
462;SDS011;218;51.902;9.542;2022-12-10T02:31:44;29.35;;;20.67;;
462;SDS011;218;51.902;9.542;2022-12-10T02:34:14;27.65;;;20.55;;
462;SDS011;218;51.902;9.542;2022-12-10T02:36:42;26.98;;;20.40;;
462;SDS011;218;51.902;9.542;2022-12-10T02:39:13;31.88;;;23.95;;
462;SDS011;218;51.902;9.542;2022-12-10T02:41:45;30.35;;;22.33;;
462;SDS011;218;51.902;9.542;2022-12-10T02:44:17;29.85;;;21.73;;
462;SDS011;218;51.902;9.542;2022-12-10T02:46:46;30.85;;;22.77;;
462;SDS011;218;51.902;9.542;2022-12-10T02:49:16;34.72;;;23.73;;
462;SDS011;218;51.902;9.542;2022-12-10T02:51:44;35.45;;;22.65;;
462;SDS011;218;51.902;9.542;2022-12-10T02:57:05;28.00;;;21.00;;
462;SDS011;218;51.902;9.542;2022-12-10T02:59:43;30.27;;;20.40;;
462;SDS011;218;51.902;9.542;2022-12-10T03:02:20;32.33;;;21.95;;
462;SDS011;218;51.902;9.542;2022-12-10T03:04:56;27.98;;;22.52;;
462;SDS011;218;51.902;9.542;2022-12-10T03:07:28;27.35;;;19.92;;
462;SDS011;218;51.902;9.542;2022-12-10T03:10:02;28.05;;;19.33;;
462;SDS011;218;51.902;9.542;2022-12-10T03:12:35;34.95;;;22.38;;
462;SDS011;218;51.902;9.542;2022-12-10T03:15:07;28.60;;;21.15;;
462;SDS011;218;51.902;9.542;2022-12-10T03:17:37;31.90;;;20.45;;
462;SDS011;218;51.902;9.542;2022-12-10T03:20:06;27.98;;;19.17;;
462;SDS011;218;51.902;9.542;2022-12-10T03:22:34;28.45;;;20.92;;
462;SDS011;218;51.902;9.542;2022-12-10T03:25:05;30.27;;;21.25;;
462;SDS011;218;51.902;9.542;2022-12-10T03:27:33;33.25;;;21.52;;
462;SDS011;218;51.902;9.542;2022-12-10T03:30:01;26.63;;;19.02;;
462;SDS011;218;51.902;9.542;2022-12-10T03:32:29;27.10;;;18.67;;
462;SDS011;218;51.902;9.542;2022-12-10T03:34:57;34.28;;;20.73;;
462;SDS011;218;51.902;9.542;2022-12-10T03:37:26;30.20;;;19.10;;
462;SDS011;218;51.902;9.542;2022-12-10T03:39:54;28.75;;;21.02;;
462;SDS011;218;51.902;9.542;2022-12-10T03:42:22;26.83;;;18.88;;
462;SDS011;218;51.902;9.542;2022-12-10T03:44:49;26.42;;;19.95;;
462;SDS011;218;51.902;9.542;2022-12-10T03:47:17;27.40;;;18.30;;
462;SDS011;218;51.902;9.542;2022-12-10T03:49:46;30.58;;;21.38;;
462;SDS011;218;51.902;9.542;2022-12-10T03:52:13;30.00;;;22.77;;
462;SDS011;218;51.902;9.542;2022-12-10T03:54:40;33.15;;;22.42;;
462;SDS011;218;51.902;9.542;2022-12-10T03:57:07;30.13;;;21.73;;
462;SDS011;218;51.902;9.542;2022-12-10T03:59:34;25.45;;;18.52;;
462;SDS011;218;51.902;9.542;2022-12-10T04:02:01;25.85;;;17.20;;
462;SDS011;218;51.902;9.542;2022-12-10T04:04:28;28.92;;;18.40;;
462;SDS011;218;51.902;9.542;2022-12-10T04:06:56;29.50;;;16.65;;
462;SDS011;218;51.902;9.542;2022-12-10T04:09:23;30.13;;;16.52;;
462;SDS011;218;51.902;9.542;2022-12-10T04:11:50;29.45;;;16.67;;
462;SDS011;218;51.902;9.542;2022-12-10T04:14:21;33.15;;;18.50;;
462;SDS011;218;51.902;9.542;2022-12-10T04:17:06;29.60;;;16.35;;
462;SDS011;218;51.902;9.542;2022-12-10T04:19:33;33.53;;;18.73;;
462;SDS011;218;51.902;9.542;2022-12-10T04:22:01;26.98;;;17.27;;
462;SDS011;218;51.902;9.542;2022-12-10T04:24:45;29.70;;;18.92;;
462;SDS011;218;51.902;9.542;2022-12-10T04:27:30;35.08;;;17.00;;
462;SDS011;218;51.902;9.542;2022-12-10T04:29:59;27.33;;;17.25;;
462;SDS011;218;51.902;9.542;2022-12-10T04:32:27;30.75;;;16.50;;
462;SDS011;218;51.902;9.542;2022-12-10T04:34:55;27.05;;;17.40;;
462;SDS011;218;51.902;9.542;2022-12-10T04:37:24;27.67;;;17.00;;
462;SDS011;218;51.902;9.542;2022-12-10T04:39:52;23.70;;;16.27;;
462;SDS011;218;51.902;9.542;2022-12-10T04:42:19;27.38;;;16.10;;
462;SDS011;218;51.902;9.542;2022-12-10T04:44:47;28.25;;;15.93;;
462;SDS011;218;51.902;9.542;2022-12-10T04:47:14;27.83;;;13.60;;
462;SDS011;218;51.902;9.542;2022-12-10T04:49:41;28.30;;;16.02;;
462;SDS011;218;51.902;9.542;2022-12-10T04:52:10;26.65;;;15.30;;
462;SDS011;218;51.902;9.542;2022-12-10T04:54:39;27.98;;;16.80;;
462;SDS011;218;51.902;9.542;2022-12-10T04:57:06;25.92;;;12.95;;
462;SDS011;218;51.902;9.542;2022-12-10T04:59:34;26.77;;;14.20;;
462;SDS011;218;51.902;9.542;2022-12-10T05:02:02;18.55;;;13.23;;
462;SDS011;218;51.902;9.542;2022-12-10T05:04:29;19.88;;;13.77;;
462;SDS011;218;51.902;9.542;2022-12-10T05:06:56;20.83;;;15.25;;
462;SDS011;218;51.902;9.542;2022-12-10T05:09:23;24.48;;;14.13;;
462;SDS011;218;51.902;9.542;2022-12-10T05:11:51;25.38;;;14.82;;
462;SDS011;218;51.902;9.542;2022-12-10T05:14:18;26.02;;;15.10;;
462;SDS011;218;51.902;9.542;2022-12-10T05:16:45;27.70;;;14.00;;
462;SDS011;218;51.902;9.542;2022-12-10T05:19:14;27.88;;;14.75;;
462;SDS011;218;51.902;9.542;2022-12-10T05:21:41;28.77;;;16.63;;
462;SDS011;218;51.902;9.542;2022-12-10T05:24:25;23.70;;;13.50;;
462;SDS011;218;51.902;9.542;2022-12-10T05:26:54;27.75;;;17.20;;
462;SDS011;218;51.902;9.542;2022-12-10T05:29:22;26.55;;;16.00;;
462;SDS011;218;51.902;9.542;2022-12-10T05:31:49;26.90;;;15.85;;
462;SDS011;218;51.902;9.542;2022-12-10T05:34:16;29.92;;;15.38;;
462;SDS011;218;51.902;9.542;2022-12-10T05:36:43;23.33;;;15.30;;
462;SDS011;218;51.902;9.542;2022-12-10T05:39:10;27.35;;;16.13;;
462;SDS011;218;51.902;9.542;2022-12-10T05:41:38;29.30;;;15.20;;
462;SDS011;218;51.902;9.542;2022-12-10T05:44:07;25.63;;;14.75;;
462;SDS011;218;51.902;9.542;2022-12-10T05:46:35;27.13;;;17.50;;
462;SDS011;218;51.902;9.542;2022-12-10T05:49:04;27.42;;;15.25;;
462;SDS011;218;51.902;9.542;2022-12-10T05:51:32;28.00;;;15.57;;
462;SDS011;218;51.902;9.542;2022-12-10T05:54:01;28.50;;;16.85;;
462;SDS011;218;51.902;9.542;2022-12-10T05:56:29;26.10;;;16.13;;
462;SDS011;218;51.902;9.542;2022-12-10T05:58:57;28.10;;;15.82;;
462;SDS011;218;51.902;9.542;2022-12-10T06:01:28;27.73;;;16.40;;
462;SDS011;218;51.902;9.542;2022-12-10T06:03:56;25.30;;;16.48;;
462;SDS011;218;51.902;9.542;2022-12-10T06:06:25;30.45;;;17.30;;
462;SDS011;218;51.902;9.542;2022-12-10T06:08:54;31.52;;;16.40;;
462;SDS011;218;51.902;9.542;2022-12-10T06:11:22;26.40;;;16.63;;
462;SDS011;218;51.902;9.542;2022-12-10T06:13:51;31.48;;;17.15;;
462;SDS011;218;51.902;9.542;2022-12-10T06:16:19;29.98;;;17.55;;
462;SDS011;218;51.902;9.542;2022-12-10T06:18:48;29.52;;;19.60;;
462;SDS011;218;51.902;9.542;2022-12-10T06:21:16;33.67;;;18.08;;
462;SDS011;218;51.902;9.542;2022-12-10T06:23:44;31.58;;;18.27;;
462;SDS011;218;51.902;9.542;2022-12-10T06:26:12;34.15;;;18.35;;
462;SDS011;218;51.902;9.542;2022-12-10T06:28:41;34.97;;;18.75;;
462;SDS011;218;51.902;9.542;2022-12-10T06:31:10;32.35;;;16.10;;
462;SDS011;218;51.902;9.542;2022-12-10T06:33:37;31.30;;;17.10;;
462;SDS011;218;51.902;9.542;2022-12-10T06:36:05;30.85;;;18.10;;
462;SDS011;218;51.902;9.542;2022-12-10T06:38:34;33.05;;;17.40;;
462;SDS011;218;51.902;9.542;2022-12-10T06:41:04;31.30;;;17.75;;
462;SDS011;218;51.902;9.542;2022-12-10T06:43:31;26.08;;;16.98;;
462;SDS011;218;51.902;9.542;2022-12-10T06:45:58;26.85;;;16.63;;
462;SDS011;218;51.902;9.542;2022-12-10T06:48:29;32.53;;;17.05;;
462;SDS011;218;51.902;9.542;2022-12-10T06:50:56;28.52;;;16.33;;
462;SDS011;218;51.902;9.542;2022-12-10T06:53:24;32.22;;;16.48;;
462;SDS011;218;51.902;9.542;2022-12-10T06:55:51;29.25;;;15.00;;
462;SDS011;218;51.902;9.542;2022-12-10T06:58:18;25.70;;;15.63;;
462;SDS011;218;51.902;9.542;2022-12-10T07:00:45;35.28;;;17.67;;
462;SDS011;218;51.902;9.542;2022-12-10T07:03:12;23.10;;;15.55;;
462;SDS011;218;51.902;9.542;2022-12-10T07:05:39;23.95;;;13.57;;
462;SDS011;218;51.902;9.542;2022-12-10T07:08:06;21.73;;;13.93;;
462;SDS011;218;51.902;9.542;2022-12-10T07:10:35;22.83;;;13.77;;
462;SDS011;218;51.902;9.542;2022-12-10T07:13:02;23.08;;;14.32;;
462;SDS011;218;51.902;9.542;2022-12-10T07:15:30;21.27;;;13.45;;
462;SDS011;218;51.902;9.542;2022-12-10T07:17:57;20.92;;;12.55;;
462;SDS011;218;51.902;9.542;2022-12-10T07:20:24;21.95;;;13.25;;
462;SDS011;218;51.902;9.542;2022-12-10T07:22:51;24.55;;;14.65;;
462;SDS011;218;51.902;9.542;2022-12-10T07:25:18;24.58;;;14.35;;
462;SDS011;218;51.902;9.542;2022-12-10T07:27:46;18.13;;;12.05;;
462;SDS011;218;51.902;9.542;2022-12-10T07:30:13;21.50;;;13.73;;
462;SDS011;218;51.902;9.542;2022-12-10T07:32:40;17.60;;;12.77;;
462;SDS011;218;51.902;9.542;2022-12-10T07:35:07;18.23;;;12.65;;
462;SDS011;218;51.902;9.542;2022-12-10T07:37:34;20.00;;;12.55;;
462;SDS011;218;51.902;9.542;2022-12-10T07:40:01;20.38;;;12.13;;
462;SDS011;218;51.902;9.542;2022-12-10T07:42:28;17.83;;;11.57;;
462;SDS011;218;51.902;9.542;2022-12-10T07:44:56;16.65;;;11.68;;
462;SDS011;218;51.902;9.542;2022-12-10T07:47:23;20.75;;;12.30;;
462;SDS011;218;51.902;9.542;2022-12-10T07:49:50;21.08;;;13.32;;
462;SDS011;218;51.902;9.542;2022-12-10T07:52:17;23.75;;;12.57;;
462;SDS011;218;51.902;9.542;2022-12-10T07:54:44;18.70;;;12.35;;
462;SDS011;218;51.902;9.542;2022-12-10T07:57:11;22.40;;;13.52;;
462;SDS011;218;51.902;9.542;2022-12-10T07:59:39;18.63;;;12.38;;
462;SDS011;218;51.902;9.542;2022-12-10T08:02:08;23.52;;;14.80;;
462;SDS011;218;51.902;9.542;2022-12-10T08:04:35;22.40;;;13.20;;
462;SDS011;218;51.902;9.542;2022-12-10T08:07:02;17.50;;;13.00;;
462;SDS011;218;51.902;9.542;2022-12-10T08:09:29;19.85;;;12.05;;
462;SDS011;218;51.902;9.542;2022-12-10T08:11:56;15.27;;;11.98;;
462;SDS011;218;51.902;9.542;2022-12-10T08:14:23;18.58;;;12.55;;
462;SDS011;218;51.902;9.542;2022-12-10T08:16:50;18.17;;;13.35;;
462;SDS011;218;51.902;9.542;2022-12-10T08:19:19;19.92;;;13.80;;
462;SDS011;218;51.902;9.542;2022-12-10T08:21:46;20.15;;;11.40;;
462;SDS011;218;51.902;9.542;2022-12-10T08:24:13;24.85;;;14.73;;
462;SDS011;218;51.902;9.542;2022-12-10T08:26:39;19.63;;;11.82;;
462;SDS011;218;51.902;9.542;2022-12-10T08:29:06;20.98;;;12.70;;
462;SDS011;218;51.902;9.542;2022-12-10T08:31:33;15.57;;;11.10;;
462;SDS011;218;51.902;9.542;2022-12-10T08:34:00;20.42;;;13.00;;
462;SDS011;218;51.902;9.542;2022-12-10T08:36:28;22.60;;;12.32;;
462;SDS011;218;51.902;9.542;2022-12-10T08:38:56;22.45;;;13.38;;
462;SDS011;218;51.902;9.542;2022-12-10T08:41:23;19.20;;;12.88;;
462;SDS011;218;51.902;9.542;2022-12-10T08:43:53;21.77;;;13.27;;
462;SDS011;218;51.902;9.542;2022-12-10T08:46:20;17.52;;;12.20;;
462;SDS011;218;51.902;9.542;2022-12-10T08:48:48;19.95;;;12.70;;
462;SDS011;218;51.902;9.542;2022-12-10T08:51:15;20.88;;;13.38;;
462;SDS011;218;51.902;9.542;2022-12-10T08:53:45;20.27;;;12.55;;
462;SDS011;218;51.902;9.542;2022-12-10T08:56:12;20.73;;;13.57;;
462;SDS011;218;51.902;9.542;2022-12-10T08:58:39;21.70;;;12.40;;
462;SDS011;218;51.902;9.542;2022-12-10T09:01:07;19.05;;;11.98;;
462;SDS011;218;51.902;9.542;2022-12-10T09:03:37;24.92;;;12.60;;
462;SDS011;218;51.902;9.542;2022-12-10T09:06:07;19.95;;;13.48;;
462;SDS011;218;51.902;9.542;2022-12-10T09:08:36;20.35;;;12.73;;
462;SDS011;218;51.902;9.542;2022-12-10T09:11:05;20.50;;;12.60;;
462;SDS011;218;51.902;9.542;2022-12-10T09:13:33;18.88;;;12.75;;
462;SDS011;218;51.902;9.542;2022-12-10T09:16:01;18.52;;;12.73;;
462;SDS011;218;51.902;9.542;2022-12-10T09:18:27;16.73;;;12.90;;
462;SDS011;218;51.902;9.542;2022-12-10T09:20:54;17.98;;;12.23;;
462;SDS011;218;51.902;9.542;2022-12-10T09:23:21;21.17;;;13.60;;
462;SDS011;218;51.902;9.542;2022-12-10T09:25:48;20.88;;;14.00;;
462;SDS011;218;51.902;9.542;2022-12-10T09:28:17;19.48;;;12.45;;
462;SDS011;218;51.902;9.542;2022-12-10T09:30:43;25.23;;;15.00;;
462;SDS011;218;51.902;9.542;2022-12-10T09:33:10;22.75;;;13.93;;
462;SDS011;218;51.902;9.542;2022-12-10T09:35:39;22.02;;;14.10;;
462;SDS011;218;51.902;9.542;2022-12-10T09:38:07;19.67;;;12.75;;
462;SDS011;218;51.902;9.542;2022-12-10T09:40:35;23.85;;;12.95;;
462;SDS011;218;51.902;9.542;2022-12-10T09:43:09;20.67;;;13.48;;
462;SDS011;218;51.902;9.542;2022-12-10T09:45:46;19.00;;;11.75;;
462;SDS011;218;51.902;9.542;2022-12-10T09:48:25;19.38;;;11.57;;
462;SDS011;218;51.902;9.542;2022-12-10T09:50:59;19.70;;;11.52;;
462;SDS011;218;51.902;9.542;2022-12-10T09:53:33;19.10;;;12.10;;
462;SDS011;218;51.902;9.542;2022-12-10T09:56:02;21.45;;;11.60;;
462;SDS011;218;51.902;9.542;2022-12-10T09:58:30;15.88;;;10.48;;
462;SDS011;218;51.902;9.542;2022-12-10T10:00:59;19.02;;;10.35;;
462;SDS011;218;51.902;9.542;2022-12-10T10:03:27;14.85;;;10.65;;
462;SDS011;218;51.902;9.542;2022-12-10T10:05:58;14.65;;;11.57;;
462;SDS011;218;51.902;9.542;2022-12-10T10:08:27;15.70;;;10.82;;
462;SDS011;218;51.902;9.542;2022-12-10T10:10:58;16.92;;;10.75;;
462;SDS011;218;51.902;9.542;2022-12-10T10:13:27;16.15;;;9.90;;
462;SDS011;218;51.902;9.542;2022-12-10T10:16:07;18.17;;;12.60;;
462;SDS011;218;51.902;9.542;2022-12-10T10:18:48;19.45;;;11.55;;
462;SDS011;218;51.902;9.542;2022-12-10T10:21:21;19.15;;;11.98;;
462;SDS011;218;51.902;9.542;2022-12-10T10:23:50;22.30;;;12.13;;
462;SDS011;218;51.902;9.542;2022-12-10T10:26:17;20.95;;;11.77;;
462;SDS011;218;51.902;9.542;2022-12-10T10:28:44;27.10;;;14.13;;
462;SDS011;218;51.902;9.542;2022-12-10T10:31:20;20.77;;;11.43;;
462;SDS011;218;51.902;9.542;2022-12-10T10:33:49;22.60;;;13.43;;
462;SDS011;218;51.902;9.542;2022-12-10T10:36:22;18.23;;;11.65;;
462;SDS011;218;51.902;9.542;2022-12-10T10:38:51;17.23;;;11.13;;
462;SDS011;218;51.902;9.542;2022-12-10T10:41:18;23.60;;;13.10;;
462;SDS011;218;51.902;9.542;2022-12-10T10:43:45;18.77;;;11.88;;
462;SDS011;218;51.902;9.542;2022-12-10T10:46:14;18.52;;;11.68;;
462;SDS011;218;51.902;9.542;2022-12-10T10:48:44;14.63;;;10.55;;
462;SDS011;218;51.902;9.542;2022-12-10T10:51:15;17.00;;;11.15;;
462;SDS011;218;51.902;9.542;2022-12-10T10:53:48;14.48;;;10.10;;
462;SDS011;218;51.902;9.542;2022-12-10T10:56:17;15.05;;;10.25;;
462;SDS011;218;51.902;9.542;2022-12-10T10:58:50;15.45;;;10.40;;
462;SDS011;218;51.902;9.542;2022-12-10T11:01:21;17.13;;;11.30;;
462;SDS011;218;51.902;9.542;2022-12-10T11:03:53;17.50;;;10.80;;
462;SDS011;218;51.902;9.542;2022-12-10T11:06:21;16.10;;;11.65;;
462;SDS011;218;51.902;9.542;2022-12-10T11:08:49;18.15;;;9.57;;
462;SDS011;218;51.902;9.542;2022-12-10T11:11:20;16.13;;;9.80;;
462;SDS011;218;51.902;9.542;2022-12-10T11:13:51;14.82;;;10.55;;
462;SDS011;218;51.902;9.542;2022-12-10T11:16:19;14.18;;;10.52;;
462;SDS011;218;51.902;9.542;2022-12-10T11:18:55;18.63;;;10.68;;
462;SDS011;218;51.902;9.542;2022-12-10T11:21:27;15.80;;;10.65;;
462;SDS011;218;51.902;9.542;2022-12-10T11:23:56;18.35;;;9.63;;
462;SDS011;218;51.902;9.542;2022-12-10T11:26:31;16.80;;;10.55;;
462;SDS011;218;51.902;9.542;2022-12-10T11:29:22;15.13;;;9.70;;
462;SDS011;218;51.902;9.542;2022-12-10T11:32:10;14.25;;;9.45;;
462;SDS011;218;51.902;9.542;2022-12-10T11:35:01;16.15;;;9.77;;
462;SDS011;218;51.902;9.542;2022-12-10T11:37:36;14.95;;;9.88;;
462;SDS011;218;51.902;9.542;2022-12-10T11:40:21;14.98;;;10.98;;
462;SDS011;218;51.902;9.542;2022-12-10T11:43:00;15.70;;;10.18;;
462;SDS011;218;51.902;9.542;2022-12-10T11:45:45;11.70;;;9.05;;
462;SDS011;218;51.902;9.542;2022-12-10T11:48:22;12.80;;;8.90;;
462;SDS011;218;51.902;9.542;2022-12-10T11:51:02;12.48;;;8.75;;
462;SDS011;218;51.902;9.542;2022-12-10T11:53:35;13.82;;;9.15;;
462;SDS011;218;51.902;9.542;2022-12-10T11:56:14;12.30;;;9.13;;
462;SDS011;218;51.902;9.542;2022-12-10T11:58:54;12.45;;;8.88;;
462;SDS011;218;51.902;9.542;2022-12-10T12:01:28;12.75;;;8.25;;
462;SDS011;218;51.902;9.542;2022-12-10T12:04:06;14.80;;;8.80;;
462;SDS011;218;51.902;9.542;2022-12-10T12:07:10;10.88;;;8.70;;
462;SDS011;218;51.902;9.542;2022-12-10T12:10:13;14.25;;;9.18;;
462;SDS011;218;51.902;9.542;2022-12-10T12:13:02;13.73;;;9.05;;
462;SDS011;218;51.902;9.542;2022-12-10T12:15:35;14.70;;;8.77;;
462;SDS011;218;51.902;9.542;2022-12-10T12:18:06;12.80;;;8.98;;
462;SDS011;218;51.902;9.542;2022-12-10T12:20:42;12.65;;;8.20;;
462;SDS011;218;51.902;9.542;2022-12-10T12:23:15;15.50;;;9.63;;
462;SDS011;218;51.902;9.542;2022-12-10T12:25:48;11.82;;;8.00;;
462;SDS011;218;51.902;9.542;2022-12-10T12:28:20;15.35;;;9.50;;
462;SDS011;218;51.902;9.542;2022-12-10T12:30:51;12.68;;;9.13;;
462;SDS011;218;51.902;9.542;2022-12-10T12:33:27;13.43;;;9.38;;
462;SDS011;218;51.902;9.542;2022-12-10T12:35:58;12.02;;;8.40;;
462;SDS011;218;51.902;9.542;2022-12-10T12:38:30;10.95;;;8.45;;
462;SDS011;218;51.902;9.542;2022-12-10T12:41:02;11.25;;;8.85;;
462;SDS011;218;51.902;9.542;2022-12-10T12:43:36;10.15;;;7.30;;
462;SDS011;218;51.902;9.542;2022-12-10T12:46:10;12.23;;;9.27;;
462;SDS011;218;51.902;9.542;2022-12-10T12:48:42;15.75;;;8.88;;
462;SDS011;218;51.902;9.542;2022-12-10T12:51:16;10.75;;;8.00;;
462;SDS011;218;51.902;9.542;2022-12-10T12:53:47;12.77;;;11.35;;
462;SDS011;218;51.902;9.542;2022-12-10T12:56:17;12.82;;;8.27;;
462;SDS011;218;51.902;9.542;2022-12-10T12:58:57;12.07;;;8.55;;
462;SDS011;218;51.902;9.542;2022-12-10T13:01:31;14.57;;;9.85;;
462;SDS011;218;51.902;9.542;2022-12-10T13:04:02;12.75;;;8.18;;
462;SDS011;218;51.902;9.542;2022-12-10T13:06:31;13.15;;;7.85;;
462;SDS011;218;51.902;9.542;2022-12-10T13:14:53;19.25;;;13.13;;
462;SDS011;218;51.902;9.542;2022-12-10T13:17:27;18.83;;;12.50;;
462;SDS011;218;51.902;9.542;2022-12-10T13:22:55;19.70;;;12.07;;
462;SDS011;218;51.902;9.542;2022-12-10T13:25:39;18.17;;;12.00;;
462;SDS011;218;51.902;9.542;2022-12-10T13:28:21;17.50;;;12.60;;
462;SDS011;218;51.902;9.542;2022-12-10T13:33:46;19.65;;;11.93;;
462;SDS011;218;51.902;9.542;2022-12-10T13:36:24;17.63;;;11.82;;
462;SDS011;218;51.902;9.542;2022-12-10T13:38:56;18.02;;;12.00;;
462;SDS011;218;51.902;9.542;2022-12-10T13:41:40;19.20;;;12.98;;
462;SDS011;218;51.902;9.542;2022-12-10T13:44:59;16.35;;;12.32;;
462;SDS011;218;51.902;9.542;2022-12-10T13:47:32;17.52;;;12.00;;
462;SDS011;218;51.902;9.542;2022-12-10T13:50:14;19.92;;;12.30;;
462;SDS011;218;51.902;9.542;2022-12-10T13:52:44;20.08;;;12.90;;
462;SDS011;218;51.902;9.542;2022-12-10T13:55:26;18.92;;;11.80;;
462;SDS011;218;51.902;9.542;2022-12-10T13:58:08;18.73;;;13.60;;
462;SDS011;218;51.902;9.542;2022-12-10T14:00:58;20.55;;;13.20;;
462;SDS011;218;51.902;9.542;2022-12-10T14:06:24;19.23;;;13.05;;
462;SDS011;218;51.902;9.542;2022-12-10T14:08:56;19.50;;;11.88;;
462;SDS011;218;51.902;9.542;2022-12-10T14:11:27;17.60;;;13.10;;
462;SDS011;218;51.902;9.542;2022-12-10T14:13:58;23.55;;;13.98;;
462;SDS011;218;51.902;9.542;2022-12-10T14:16:28;18.00;;;11.63;;
462;SDS011;218;51.902;9.542;2022-12-10T14:18:59;15.45;;;10.60;;
462;SDS011;218;51.902;9.542;2022-12-10T14:21:31;13.40;;;10.35;;
462;SDS011;218;51.902;9.542;2022-12-10T14:24:00;17.08;;;10.80;;
462;SDS011;218;51.902;9.542;2022-12-10T14:26:28;16.33;;;10.98;;
462;SDS011;218;51.902;9.542;2022-12-10T14:29:00;13.75;;;11.15;;
462;SDS011;218;51.902;9.542;2022-12-10T14:31:28;15.43;;;10.35;;
462;SDS011;218;51.902;9.542;2022-12-10T14:33:59;15.50;;;9.60;;
462;SDS011;218;51.902;9.542;2022-12-10T14:36:30;16.00;;;11.40;;
462;SDS011;218;51.902;9.542;2022-12-10T14:38:59;11.82;;;10.07;;
462;SDS011;218;51.902;9.542;2022-12-10T14:41:27;12.60;;;10.05;;
462;SDS011;218;51.902;9.542;2022-12-10T14:44:01;13.65;;;9.95;;
462;SDS011;218;51.902;9.542;2022-12-10T14:46:30;12.50;;;10.48;;
462;SDS011;218;51.902;9.542;2022-12-10T14:48:58;13.57;;;9.82;;
462;SDS011;218;51.902;9.542;2022-12-10T14:51:26;14.55;;;9.98;;
462;SDS011;218;51.902;9.542;2022-12-10T14:53:58;16.90;;;10.82;;
462;SDS011;218;51.902;9.542;2022-12-10T14:56:26;13.57;;;9.93;;
462;SDS011;218;51.902;9.542;2022-12-10T14:59:00;16.67;;;11.15;;
462;SDS011;218;51.902;9.542;2022-12-10T15:01:36;14.70;;;10.55;;
462;SDS011;218;51.902;9.542;2022-12-10T15:04:06;15.80;;;11.35;;
462;SDS011;218;51.902;9.542;2022-12-10T15:06:39;13.27;;;10.63;;
462;SDS011;218;51.902;9.542;2022-12-10T15:09:09;14.55;;;10.25;;
462;SDS011;218;51.902;9.542;2022-12-10T15:11:40;13.13;;;10.35;;
462;SDS011;218;51.902;9.542;2022-12-10T15:14:14;14.00;;;11.20;;
462;SDS011;218;51.902;9.542;2022-12-10T15:16:44;15.38;;;11.35;;
462;SDS011;218;51.902;9.542;2022-12-10T15:19:17;18.08;;;12.63;;
462;SDS011;218;51.902;9.542;2022-12-10T15:21:46;15.07;;;10.77;;
462;SDS011;218;51.902;9.542;2022-12-10T15:24:16;16.27;;;12.02;;
462;SDS011;218;51.902;9.542;2022-12-10T15:26:45;13.80;;;10.48;;
462;SDS011;218;51.902;9.542;2022-12-10T15:29:35;14.88;;;10.52;;
462;SDS011;218;51.902;9.542;2022-12-10T15:32:06;11.63;;;10.30;;
462;SDS011;218;51.902;9.542;2022-12-10T15:34:41;14.45;;;10.27;;
462;SDS011;218;51.902;9.542;2022-12-10T15:37:18;14.77;;;10.85;;
462;SDS011;218;51.902;9.542;2022-12-10T15:39:49;12.95;;;10.50;;
462;SDS011;218;51.902;9.542;2022-12-10T15:42:36;13.00;;;9.73;;
462;SDS011;218;51.902;9.542;2022-12-10T15:45:15;14.73;;;11.32;;
462;SDS011;218;51.902;9.542;2022-12-10T15:47:45;13.75;;;12.30;;
462;SDS011;218;51.902;9.542;2022-12-10T15:50:12;17.85;;;13.32;;
462;SDS011;218;51.902;9.542;2022-12-10T15:52:39;20.45;;;14.00;;
462;SDS011;218;51.902;9.542;2022-12-10T15:55:06;16.75;;;12.73;;
462;SDS011;218;51.902;9.542;2022-12-10T15:57:34;16.98;;;12.98;;